createdAt,value
2022-10-19T00:02:03.266Z,76.65
2022-10-19T00:04:30.773Z,75.80
2022-10-19T00:07:15.647Z,76.90
2022-10-19T00:09:43.907Z,81.07
2022-10-19T00:12:13.736Z,75.07
2022-10-19T00:15:43.959Z,80.43
2022-10-19T00:18:11.524Z,79.57
2022-10-19T00:20:38.867Z,82.10
2022-10-19T00:23:08.371Z,79.97
2022-10-19T00:25:38.077Z,77.32
2022-10-19T00:28:05.468Z,82.28
2022-10-19T00:33:32.973Z,81.45
2022-10-19T00:36:05.075Z,78.65
2022-10-19T00:38:33.010Z,80.00
2022-10-19T00:41:32.782Z,82.15
2022-10-19T00:47:23.656Z,77.63
2022-10-19T00:50:18.644Z,79.95
2022-10-19T00:55:46.785Z,77.95
2022-10-19T00:58:14.427Z,83.10
2022-10-19T01:00:41.726Z,79.20
2022-10-19T01:03:19.064Z,79.95
2022-10-19T01:06:37.244Z,77.22
2022-10-19T01:09:14.925Z,78.53
2022-10-19T01:12:02.423Z,76.68
2022-10-19T01:15:37.843Z,79.15
2022-10-19T01:18:49.876Z,78.22
2022-10-19T01:21:26.262Z,86.82
2022-10-19T01:23:53.458Z,80.07
2022-10-19T01:27:38.072Z,77.60
2022-10-19T01:31:05.121Z,80.10
2022-10-19T01:34:15.866Z,83.20
2022-10-19T01:37:06.668Z,81.38
2022-10-19T01:39:49.781Z,80.80
2022-10-19T01:43:11.410Z,88.88
2022-10-19T01:45:41.470Z,80.57
2022-10-19T01:48:17.484Z,84.22
2022-10-19T01:51:16.256Z,79.28
2022-10-19T01:57:42.287Z,86.18
2022-10-19T02:00:53.993Z,80.75
2022-10-19T02:07:24.781Z,77.93
2022-10-19T02:10:43.022Z,83.70
2022-10-19T02:13:19.404Z,75.35
2022-10-19T02:16:22.866Z,78.15
2022-10-19T02:18:53.115Z,76.18
2022-10-19T02:24:19.631Z,78.50
2022-10-19T02:27:14.776Z,73.43
2022-10-19T02:29:45.891Z,76.43
2022-10-19T02:32:14.746Z,76.80
2022-10-19T02:34:42.459Z,77.53
2022-10-19T02:37:23.434Z,77.15
2022-10-19T02:40:01.489Z,72.93
2022-10-19T02:45:08.791Z,74.25
2022-10-19T02:48:13.271Z,74.50
2022-10-19T02:50:44.833Z,75.90
2022-10-19T02:53:12.193Z,81.45
2022-10-19T02:55:43.388Z,74.80
2022-10-19T02:59:08.110Z,77.15
2022-10-19T03:01:38.442Z,80.82
2022-10-19T03:04:05.868Z,75.80
2022-10-19T03:06:33.584Z,77.75
2022-10-19T03:09:00.897Z,71.15
2022-10-19T03:12:50.135Z,80.25
2022-10-19T03:15:18.584Z,81.68
2022-10-19T03:17:47.438Z,80.25
2022-10-19T03:20:20.930Z,80.57
2022-10-19T03:23:16.199Z,74.97
2022-10-19T03:25:43.619Z,73.53
2022-10-19T03:28:13.915Z,76.78
2022-10-19T03:30:41.141Z,84.10
2022-10-19T03:33:10.559Z,76.75
2022-10-19T03:36:19.071Z,82.88
2022-10-19T03:38:55.175Z,83.10
2022-10-19T03:41:24.419Z,82.50
2022-10-19T03:44:22.040Z,85.32
2022-10-19T03:46:51.467Z,80.13
2022-10-19T03:52:49.747Z,80.35
2022-10-19T03:55:20.197Z,81.15
2022-10-19T03:57:47.480Z,81.72
2022-10-19T04:00:58.890Z,81.07
2022-10-19T04:03:26.537Z,78.80
2022-10-19T04:06:08.395Z,81.88
2022-10-19T04:08:38.093Z,81.57
2022-10-19T04:11:12.798Z,83.50
2022-10-19T04:13:42.474Z,81.57
2022-10-19T04:16:14.010Z,78.80
2022-10-19T04:18:41.329Z,84.38
2022-10-19T04:21:29.724Z,79.00
2022-10-19T04:24:10.485Z,84.40
2022-10-19T04:27:26.314Z,82.82
2022-10-19T04:29:53.713Z,83.45
2022-10-19T04:42:59.131Z,78.78
2022-10-19T04:45:31.125Z,81.65
2022-10-19T04:48:06.745Z,81.15
2022-10-19T04:50:50.783Z,78.40
2022-10-19T04:55:53.145Z,77.57
2022-10-19T04:58:20.965Z,75.15
2022-10-19T05:00:48.317Z,78.53
2022-10-19T05:10:12.265Z,77.72
2022-10-19T05:12:39.591Z,81.03
2022-10-19T05:24:23.176Z,85.13
2022-10-19T05:27:14.140Z,81.40
2022-10-19T05:29:43.681Z,79.22
2022-10-19T05:32:18.178Z,81.00
2022-10-19T05:34:45.482Z,75.32
2022-10-19T05:37:26.417Z,53.80
2022-10-19T05:39:55.677Z,78.85
2022-10-19T05:42:23.004Z,71.88
2022-10-19T05:44:52.918Z,79.40
2022-10-19T05:47:26.173Z,70.53
2022-10-19T05:50:02.062Z,79.55
2022-10-19T05:52:31.566Z,76.40
2022-10-19T05:55:01.365Z,76.95
2022-10-19T05:57:28.699Z,75.03
2022-10-19T05:59:58.809Z,75.05
2022-10-19T06:02:44.558Z,72.50
2022-10-19T06:08:54.335Z,61.88
2022-10-19T06:11:25.256Z,59.92
2022-10-19T06:14:40.796Z,62.85
2022-10-19T06:17:12.604Z,54.47
2022-10-19T06:19:39.885Z,61.83
2022-10-19T06:22:07.254Z,60.78
2022-10-19T06:28:40.239Z,52.20
2022-10-19T06:31:13.433Z,60.58
2022-10-19T06:33:47.228Z,56.25
2022-10-19T06:36:24.929Z,55.38
2022-10-19T06:43:42.764Z,54.80
2022-10-19T06:46:24.151Z,57.65
2022-10-19T06:49:01.909Z,60.13
2022-10-19T06:59:34.999Z,60.28
2022-10-19T07:02:02.351Z,58.90
2022-10-19T07:04:31.194Z,62.67
2022-10-19T07:06:58.707Z,62.20
2022-10-19T07:09:26.033Z,66.43
2022-10-19T07:12:00.820Z,61.70
2022-10-19T07:14:55.598Z,58.67
2022-10-19T07:17:30.445Z,63.53
2022-10-19T07:20:03.953Z,63.60
2022-10-19T07:22:31.864Z,61.58
2022-10-19T07:25:22.071Z,61.33
2022-10-19T07:27:51.890Z,57.20
2022-10-19T07:30:52.661Z,56.83
2022-10-19T07:33:20.173Z,60.47
2022-10-19T07:36:53.101Z,60.92
2022-10-19T07:39:23.223Z,60.95
2022-10-19T07:41:53.144Z,59.58
2022-10-19T07:44:20.736Z,58.08
2022-10-19T07:46:50.344Z,56.08
2022-10-19T07:53:11.848Z,63.50
2022-10-19T07:56:15.257Z,63.72
2022-10-19T07:58:43.072Z,60.65
2022-10-19T08:01:13.572Z,59.75
2022-10-19T08:07:23.546Z,54.97
2022-10-19T08:10:04.199Z,66.55
2022-10-19T08:12:42.480Z,57.85
2022-10-19T08:15:23.840Z,55.90
2022-10-19T08:17:51.895Z,61.88
2022-10-19T08:20:19.696Z,49.53
2022-10-19T08:22:46.997Z,55.22
2022-10-19T08:25:14.370Z,55.13
2022-10-19T08:27:41.806Z,59.88
2022-10-19T08:30:09.605Z,66.70
2022-10-19T08:32:37.989Z,67.82
2022-10-19T08:40:05.773Z,60.95
2022-10-19T08:42:48.843Z,55.30
2022-10-19T08:45:39.235Z,48.78
2022-10-19T08:52:13.928Z,57.50
2022-10-19T08:54:49.643Z,57.65
2022-10-19T08:57:47.781Z,63.80
2022-10-19T09:00:25.818Z,64.90
2022-10-19T09:03:27.169Z,59.92
2022-10-19T09:06:44.955Z,66.68
2022-10-19T09:12:55.146Z,58.70
2022-10-19T09:15:42.077Z,55.72
2022-10-19T09:18:25.487Z,62.13
2022-10-19T09:21:12.428Z,61.95
2022-10-19T09:23:44.551Z,64.63
2022-10-19T09:26:23.657Z,69.00
2022-10-19T09:29:08.204Z,65.90
2022-10-19T09:31:40.917Z,56.10
2022-10-19T09:34:18.316Z,63.67
2022-10-19T09:36:52.318Z,59.35
2022-10-19T09:39:20.299Z,64.70
2022-10-19T09:42:03.247Z,61.83
2022-10-19T09:45:11.956Z,56.65
2022-10-19T09:47:42.495Z,66.85
2022-10-19T09:50:41.721Z,60.58
2022-10-19T09:53:21.770Z,63.40
2022-10-19T09:56:16.930Z,64.38
2022-10-19T09:58:53.162Z,62.58
2022-10-19T10:01:43.116Z,64.63
2022-10-19T10:04:16.339Z,61.25
2022-10-19T10:06:46.695Z,64.30
2022-10-19T10:09:19.376Z,61.90
2022-10-19T10:11:49.745Z,60.03
2022-10-19T10:14:25.170Z,60.65
2022-10-19T10:17:54.445Z,57.97
2022-10-19T10:20:32.149Z,55.25
2022-10-19T10:23:04.834Z,55.97
2022-10-19T10:25:36.648Z,59.97
2022-10-19T10:28:21.901Z,60.75
2022-10-19T10:30:54.790Z,61.30
2022-10-19T10:33:40.291Z,50.63
2022-10-19T10:36:14.422Z,64.43
2022-10-19T10:38:51.831Z,67.63
2022-10-19T10:45:53.207Z,62.70
2022-10-19T10:49:38.863Z,67.13
2022-10-19T10:56:23.110Z,73.55
2022-10-19T10:58:58.726Z,62.65
2022-10-19T11:04:43.204Z,75.70
2022-10-19T11:07:19.770Z,75.82
2022-10-19T11:12:24.012Z,71.20
2022-10-19T11:15:22.205Z,74.38
2022-10-19T11:18:02.177Z,73.00
2022-10-19T11:20:32.374Z,72.85
2022-10-19T11:23:07.505Z,75.93
2022-10-19T11:25:49.319Z,69.32
2022-10-19T11:35:46.198Z,70.28
2022-10-19T11:38:31.867Z,76.55
2022-10-19T11:41:26.701Z,75.20
2022-10-19T11:44:25.984Z,75.45
2022-10-19T11:48:03.204Z,66.25
2022-10-19T11:50:54.269Z,67.53
2022-10-19T11:53:49.211Z,66.43
2022-10-19T11:56:58.166Z,67.13
2022-10-19T11:59:53.442Z,65.53
2022-10-19T12:03:01.550Z,64.75
2022-10-19T12:05:40.370Z,70.63
2022-10-19T12:08:13.346Z,69.53
2022-10-19T12:10:53.414Z,71.22
2022-10-19T12:13:27.588Z,64.25
2022-10-19T12:19:48.056Z,73.57
2022-10-19T12:22:19.314Z,70.60
2022-10-19T12:24:47.880Z,63.83
2022-10-19T12:27:18.378Z,68.03
2022-10-19T12:29:49.643Z,69.18
2022-10-19T12:32:23.836Z,61.40
2022-10-19T12:38:06.479Z,64.43
2022-10-19T12:40:50.048Z,68.10
2022-10-19T12:43:44.280Z,64.47
2022-10-19T12:54:39.883Z,62.75
2022-10-19T12:57:29.413Z,66.35
2022-10-19T13:00:18.726Z,64.93
2022-10-19T13:02:48.273Z,67.88
2022-10-19T13:05:26.450Z,67.38
2022-10-19T13:07:54.310Z,68.70
2022-10-19T13:10:27.182Z,69.32
2022-10-19T13:12:55.262Z,74.05
2022-10-19T13:15:35.480Z,63.28
2022-10-19T13:18:05.357Z,62.17
2022-10-19T13:20:33.823Z,61.05
2022-10-19T13:23:02.207Z,61.55
2022-10-19T13:29:25.482Z,59.00
2022-10-19T13:31:52.896Z,58.70
2022-10-19T13:34:45.481Z,58.15
2022-10-19T13:37:36.515Z,63.25
2022-10-19T13:40:23.617Z,63.28
2022-10-19T13:42:58.627Z,62.53
2022-10-19T13:46:12.909Z,56.45
2022-10-19T13:49:01.591Z,56.72
2022-10-19T13:56:20.128Z,52.10
2022-10-19T14:02:03.036Z,54.40
2022-10-19T14:04:44.361Z,54.75
2022-10-19T14:07:19.235Z,57.20
2022-10-19T14:09:55.547Z,62.05
2022-10-19T14:13:23.175Z,59.53
2022-10-19T14:19:03.439Z,56.15
2022-10-19T14:21:36.967Z,59.13
2022-10-19T14:27:07.764Z,57.53
2022-10-19T14:29:47.380Z,51.55
2022-10-19T14:32:15.458Z,54.50
2022-10-19T14:38:01.060Z,57.90
2022-10-19T14:40:31.797Z,61.53
2022-10-19T14:43:02.809Z,52.70
2022-10-19T14:45:33.294Z,60.00
2022-10-19T14:48:17.100Z,58.63
2022-10-19T14:50:56.611Z,55.42
2022-10-19T14:53:37.075Z,52.35
2022-10-19T15:07:43.022Z,52.92
2022-10-19T15:10:44.165Z,54.47
2022-10-19T15:13:25.451Z,52.85
2022-10-19T15:15:56.128Z,58.97
2022-10-19T15:22:46.587Z,54.28
2022-10-19T15:25:37.081Z,59.35
2022-10-19T15:28:55.465Z,53.00
2022-10-19T15:31:28.664Z,61.95
2022-10-19T15:34:05.661Z,51.55
2022-10-19T15:36:33.482Z,54.85
2022-10-19T15:39:25.199Z,58.47
2022-10-19T15:42:22.731Z,51.85
2022-10-19T15:44:50.117Z,52.50
2022-10-19T15:47:20.131Z,56.00
2022-10-19T15:49:53.637Z,56.30
2022-10-19T15:52:23.482Z,53.90
2022-10-19T15:54:52.563Z,54.70
2022-10-19T15:57:28.795Z,55.53
2022-10-19T15:59:58.038Z,51.58
2022-10-19T16:02:25.477Z,53.30
2022-10-19T16:05:34.001Z,54.13
2022-10-19T16:08:03.452Z,54.38
2022-10-19T16:10:32.708Z,56.13
2022-10-19T16:13:24.433Z,54.45
2022-10-19T16:16:01.423Z,52.63
2022-10-19T16:19:07.252Z,47.05
2022-10-19T16:21:37.241Z,50.55
2022-10-19T16:24:05.221Z,51.53
2022-10-19T16:26:32.871Z,52.42
2022-10-19T16:29:02.177Z,59.05
2022-10-19T16:31:29.479Z,53.15
2022-10-19T16:33:56.852Z,55.08
2022-10-19T16:36:24.160Z,52.08
2022-10-19T16:45:11.548Z,57.40
2022-10-19T16:47:39.124Z,59.95
2022-10-19T16:50:06.977Z,58.47
2022-10-19T16:52:37.661Z,55.90
2022-10-19T16:55:06.115Z,64.07
2022-10-19T16:57:33.696Z,56.47
2022-10-19T17:12:49.568Z,59.90
2022-10-19T17:15:41.345Z,56.90
2022-10-19T17:18:24.678Z,54.55
2022-10-19T17:20:52.181Z,55.05
2022-10-19T17:27:23.016Z,62.10
2022-10-19T17:29:50.693Z,61.83
2022-10-19T17:32:51.154Z,59.42
2022-10-19T17:35:21.659Z,54.92
2022-10-19T17:38:33.138Z,56.08
2022-10-19T17:41:28.473Z,61.05
2022-10-19T17:43:56.481Z,60.25
2022-10-19T17:46:27.800Z,65.38
2022-10-19T17:48:56.389Z,60.58
2022-10-19T17:51:29.815Z,67.97
2022-10-19T17:54:00.590Z,63.22
2022-10-19T17:56:28.469Z,54.97
2022-10-19T17:58:57.258Z,58.30
2022-10-19T18:01:30.776Z,60.80
2022-10-19T18:04:09.908Z,62.45
2022-10-19T18:06:40.190Z,55.83
2022-10-19T18:09:11.088Z,59.10
2022-10-19T18:11:48.634Z,62.33
2022-10-19T18:14:40.670Z,57.55
2022-10-19T18:17:10.683Z,61.28
2022-10-19T18:19:38.656Z,55.17
2022-10-19T18:22:11.621Z,56.60
2022-10-19T18:25:07.558Z,60.60
2022-10-19T18:28:00.501Z,59.60
2022-10-19T18:30:29.014Z,59.00
2022-10-19T18:32:56.647Z,67.50
2022-10-19T18:35:25.383Z,59.05
2022-10-19T18:37:53.219Z,63.08
2022-10-19T18:40:20.681Z,61.17
2022-10-19T18:47:04.774Z,69.63
2022-10-19T18:53:08.379Z,73.20
2022-10-19T18:55:40.688Z,75.65
2022-10-19T18:58:11.226Z,69.57
2022-10-19T19:00:43.368Z,79.70
2022-10-19T19:03:12.965Z,72.05
2022-10-19T19:11:48.922Z,69.68
2022-10-19T19:14:21.176Z,73.97
2022-10-19T19:16:51.243Z,73.88
2022-10-19T19:19:39.740Z,70.00
2022-10-19T19:22:08.745Z,80.70
2022-10-19T19:28:10.049Z,72.38
2022-10-19T19:30:46.544Z,66.20
2022-10-19T19:33:15.229Z,66.10
2022-10-19T19:35:52.721Z,65.15
2022-10-19T19:42:34.047Z,65.03
2022-10-19T19:45:10.831Z,63.05
2022-10-19T19:47:41.285Z,62.60
2022-10-19T19:50:11.507Z,63.22
2022-10-19T19:53:18.267Z,64.22
2022-10-19T19:55:49.568Z,65.30
2022-10-19T20:02:02.072Z,60.97
2022-10-19T20:04:58.736Z,60.88
2022-10-19T20:07:29.077Z,61.70
2022-10-19T20:10:49.754Z,62.03
2022-10-19T20:13:17.236Z,56.90
2022-10-19T20:15:46.182Z,53.60
2022-10-19T20:18:13.576Z,56.75
2022-10-19T20:20:54.418Z,55.20
2022-10-19T20:23:22.008Z,52.95
2022-10-19T20:25:53.564Z,51.20
2022-10-19T20:28:21.027Z,52.25
2022-10-19T20:30:50.512Z,59.55
2022-10-19T20:33:17.941Z,49.75
2022-10-19T20:36:39.201Z,53.13
2022-10-19T20:39:11.972Z,49.97
2022-10-19T20:41:51.211Z,52.75
2022-10-19T20:45:10.033Z,48.33
2022-10-19T20:47:42.226Z,47.20
2022-10-19T20:50:40.484Z,50.15
2022-10-19T20:53:09.471Z,44.72
2022-10-19T20:56:13.686Z,48.58
2022-10-19T20:58:43.436Z,48.25
2022-10-19T21:01:14.018Z,46.17
2022-10-19T21:04:01.385Z,47.13
2022-10-19T21:06:31.391Z,48.88
2022-10-19T21:09:00.206Z,43.40
2022-10-19T21:11:41.373Z,39.30
2022-10-19T21:14:22.373Z,43.15
2022-10-19T21:17:01.553Z,37.65
2022-10-19T21:19:49.215Z,38.38
2022-10-19T21:22:42.596Z,38.13
2022-10-19T21:25:22.490Z,34.35
2022-10-19T21:28:40.231Z,35.63
2022-10-19T21:31:09.345Z,39.80
2022-10-19T21:33:39.318Z,33.88
2022-10-19T21:39:20.595Z,36.40
2022-10-19T21:41:49.227Z,44.95
2022-10-19T21:55:59.743Z,34.25
2022-10-19T21:58:27.050Z,39.40
2022-10-19T22:01:41.146Z,38.83
2022-10-19T22:04:15.996Z,41.65
2022-10-19T22:06:43.984Z,35.15
2022-10-19T22:09:23.195Z,38.80
2022-10-19T22:11:51.072Z,38.50
2022-10-19T22:14:18.836Z,44.70
2022-10-19T22:16:46.690Z,38.25
2022-10-19T22:19:18.787Z,37.78
2022-10-19T22:21:46.336Z,33.47
2022-10-19T22:24:16.464Z,38.88
2022-10-19T22:26:47.053Z,35.45
2022-10-19T22:29:14.919Z,35.38
2022-10-19T22:31:42.403Z,34.72
2022-10-19T22:34:12.930Z,36.47
2022-10-19T22:43:43.408Z,34.47
2022-10-19T22:47:26.527Z,31.80
2022-10-19T22:51:21.388Z,34.13
2022-10-19T22:54:07.415Z,32.90
2022-10-19T22:56:34.843Z,31.25
2022-10-19T22:59:04.998Z,29.42
2022-10-19T23:01:32.803Z,31.77
2022-10-19T23:04:00.146Z,34.53
2022-10-19T23:06:27.525Z,30.65
2022-10-19T23:08:56.383Z,31.55
2022-10-19T23:15:40.363Z,39.03
2022-10-19T23:18:11.768Z,31.40
2022-10-19T23:20:39.173Z,35.38
2022-10-19T23:23:07.132Z,37.10
2022-10-19T23:25:34.506Z,33.80
2022-10-19T23:28:02.018Z,33.42
2022-10-19T23:30:31.533Z,40.10
2022-10-19T23:40:59.993Z,35.10
2022-10-19T23:43:28.886Z,36.60
2022-10-19T23:46:00.329Z,35.90
2022-10-19T23:48:29.107Z,33.03
2022-10-19T23:55:22.910Z,33.22
2022-10-19T23:57:52.739Z,38.80
